sensor_id;sensor_type;location;lat;lon;timestamp;P1;durP1;ratioP1;P2;durP2;ratioP2
9115;SDS011;4593;53.652;10.168;2023-04-08T00:01:48;14.60;;;7.23;;
9115;SDS011;4593;53.652;10.168;2023-04-08T00:04:14;12.80;;;6.90;;
9115;SDS011;4593;53.652;10.168;2023-04-08T00:06:40;12.57;;;7.00;;
9115;SDS011;4593;53.652;10.168;2023-04-08T00:09:06;12.83;;;7.23;;
9115;SDS011;4593;53.652;10.168;2023-04-08T00:11:31;12.60;;;7.53;;
9115;SDS011;4593;53.652;10.168;2023-04-08T00:13:57;10.90;;;7.40;;
9115;SDS011;4593;53.652;10.168;2023-04-08T00:16:24;14.97;;;7.20;;
9115;SDS011;4593;53.652;10.168;2023-04-08T00:18:50;10.77;;;6.87;;
9115;SDS011;4593;53.652;10.168;2023-04-08T00:21:16;11.20;;;7.13;;
9115;SDS011;4593;53.652;10.168;2023-04-08T00:23:44;16.63;;;7.67;;
9115;SDS011;4593;53.652;10.168;2023-04-08T00:26:10;8.83;;;6.03;;
9115;SDS011;4593;53.652;10.168;2023-04-08T00:28:36;12.33;;;7.07;;
9115;SDS011;4593;53.652;10.168;2023-04-08T00:31:02;11.90;;;6.30;;
9115;SDS011;4593;53.652;10.168;2023-04-08T00:33:27;12.93;;;7.23;;
9115;SDS011;4593;53.652;10.168;2023-04-08T00:35:53;13.33;;;6.97;;
9115;SDS011;4593;53.652;10.168;2023-04-08T00:38:19;9.20;;;6.13;;
9115;SDS011;4593;53.652;10.168;2023-04-08T00:40:45;11.40;;;6.20;;
9115;SDS011;4593;53.652;10.168;2023-04-08T00:43:10;11.50;;;6.87;;
9115;SDS011;4593;53.652;10.168;2023-04-08T00:45:36;14.60;;;7.57;;
9115;SDS011;4593;53.652;10.168;2023-04-08T00:48:03;13.40;;;7.13;;
9115;SDS011;4593;53.652;10.168;2023-04-08T00:50:29;11.63;;;7.27;;
9115;SDS011;4593;53.652;10.168;2023-04-08T00:52:55;16.23;;;7.07;;
9115;SDS011;4593;53.652;10.168;2023-04-08T00:55:20;10.13;;;6.90;;
9115;SDS011;4593;53.652;10.168;2023-04-08T00:57:46;12.60;;;7.70;;
9115;SDS011;4593;53.652;10.168;2023-04-08T01:00:13;11.90;;;7.20;;
9115;SDS011;4593;53.652;10.168;2023-04-08T01:05:12;18.17;;;6.77;;
9115;SDS011;4593;53.652;10.168;2023-04-08T01:07:46;13.03;;;6.57;;
9115;SDS011;4593;53.652;10.168;2023-04-08T01:10:15;12.43;;;6.97;;
9115;SDS011;4593;53.652;10.168;2023-04-08T01:13:27;13.47;;;7.57;;
9115;SDS011;4593;53.652;10.168;2023-04-08T01:15:32;11.63;;;6.90;;
9115;SDS011;4593;53.652;10.168;2023-04-08T01:18:01;11.70;;;6.83;;
9115;SDS011;4593;53.652;10.168;2023-04-08T01:20:34;12.17;;;7.40;;
9115;SDS011;4593;53.652;10.168;2023-04-08T01:23:02;10.00;;;6.43;;
9115;SDS011;4593;53.652;10.168;2023-04-08T01:25:53;12.00;;;6.67;;
9115;SDS011;4593;53.652;10.168;2023-04-08T01:28:19;10.57;;;6.80;;
9115;SDS011;4593;53.652;10.168;2023-04-08T01:30:47;12.07;;;5.87;;
9115;SDS011;4593;53.652;10.168;2023-04-08T01:33:14;22.80;;;7.23;;
9115;SDS011;4593;53.652;10.168;2023-04-08T01:35:41;11.87;;;6.50;;
9115;SDS011;4593;53.652;10.168;2023-04-08T01:38:08;14.57;;;5.63;;
9115;SDS011;4593;53.652;10.168;2023-04-08T01:40:36;15.53;;;6.17;;
9115;SDS011;4593;53.652;10.168;2023-04-08T01:43:03;10.37;;;6.40;;
9115;SDS011;4593;53.652;10.168;2023-04-08T01:45:32;9.63;;;6.93;;
9115;SDS011;4593;53.652;10.168;2023-04-08T01:47:57;9.70;;;6.23;;
9115;SDS011;4593;53.652;10.168;2023-04-08T01:50:25;11.23;;;6.73;;
9115;SDS011;4593;53.652;10.168;2023-04-08T01:52:52;12.00;;;6.90;;
9115;SDS011;4593;53.652;10.168;2023-04-08T01:55:20;9.87;;;6.03;;
9115;SDS011;4593;53.652;10.168;2023-04-08T01:57:49;9.97;;;6.23;;
9115;SDS011;4593;53.652;10.168;2023-04-08T02:00:18;14.10;;;6.97;;
9115;SDS011;4593;53.652;10.168;2023-04-08T02:02:46;9.00;;;6.23;;
9115;SDS011;4593;53.652;10.168;2023-04-08T02:05:13;11.20;;;6.47;;
9115;SDS011;4593;53.652;10.168;2023-04-08T02:07:39;11.80;;;6.20;;
9115;SDS011;4593;53.652;10.168;2023-04-08T02:10:05;10.40;;;6.57;;
9115;SDS011;4593;53.652;10.168;2023-04-08T02:12:32;15.27;;;6.17;;
9115;SDS011;4593;53.652;10.168;2023-04-08T02:14:58;8.97;;;6.83;;
9115;SDS011;4593;53.652;10.168;2023-04-08T02:17:46;6.60;;;5.10;;
9115;SDS011;4593;53.652;10.168;2023-04-08T02:20:23;10.23;;;6.27;;
9115;SDS011;4593;53.652;10.168;2023-04-08T02:23:15;10.40;;;6.30;;
9115;SDS011;4593;53.652;10.168;2023-04-08T02:25:45;7.60;;;5.53;;
9115;SDS011;4593;53.652;10.168;2023-04-08T02:28:12;11.37;;;5.90;;
9115;SDS011;4593;53.652;10.168;2023-04-08T02:30:42;8.33;;;6.07;;
9115;SDS011;4593;53.652;10.168;2023-04-08T02:33:15;10.80;;;7.30;;
9115;SDS011;4593;53.652;10.168;2023-04-08T02:35:44;10.17;;;7.13;;
9115;SDS011;4593;53.652;10.168;2023-04-08T02:38:13;14.40;;;7.23;;
9115;SDS011;4593;53.652;10.168;2023-04-08T02:40:38;16.60;;;6.57;;
9115;SDS011;4593;53.652;10.168;2023-04-08T02:43:04;12.37;;;7.10;;
9115;SDS011;4593;53.652;10.168;2023-04-08T02:45:30;13.77;;;7.87;;
9115;SDS011;4593;53.652;10.168;2023-04-08T02:48:04;14.23;;;8.60;;
9115;SDS011;4593;53.652;10.168;2023-04-08T02:50:30;11.87;;;7.10;;
9115;SDS011;4593;53.652;10.168;2023-04-08T02:52:56;21.43;;;8.67;;
9115;SDS011;4593;53.652;10.168;2023-04-08T02:55:22;16.87;;;8.83;;
9115;SDS011;4593;53.652;10.168;2023-04-08T02:57:48;15.03;;;7.80;;
9115;SDS011;4593;53.652;10.168;2023-04-08T03:00:14;14.70;;;6.93;;
9115;SDS011;4593;53.652;10.168;2023-04-08T03:02:40;11.73;;;7.37;;
9115;SDS011;4593;53.652;10.168;2023-04-08T03:05:06;16.93;;;8.60;;
9115;SDS011;4593;53.652;10.168;2023-04-08T03:07:32;15.20;;;9.20;;
9115;SDS011;4593;53.652;10.168;2023-04-08T03:09:57;19.90;;;8.50;;
9115;SDS011;4593;53.652;10.168;2023-04-08T03:12:23;13.57;;;9.27;;
9115;SDS011;4593;53.652;10.168;2023-04-08T03:14:51;19.13;;;8.90;;
9115;SDS011;4593;53.652;10.168;2023-04-08T03:17:17;19.07;;;9.37;;
9115;SDS011;4593;53.652;10.168;2023-04-08T03:19:43;14.27;;;8.70;;
9115;SDS011;4593;53.652;10.168;2023-04-08T03:22:08;23.80;;;9.70;;
9115;SDS011;4593;53.652;10.168;2023-04-08T03:24:34;14.87;;;9.67;;
9115;SDS011;4593;53.652;10.168;2023-04-08T03:27:00;15.97;;;9.03;;
9115;SDS011;4593;53.652;10.168;2023-04-08T03:29:26;22.60;;;9.20;;
9115;SDS011;4593;53.652;10.168;2023-04-08T03:31:52;19.37;;;9.10;;
9115;SDS011;4593;53.652;10.168;2023-04-08T03:34:17;25.63;;;10.33;;
9115;SDS011;4593;53.652;10.168;2023-04-08T03:36:43;20.23;;;9.87;;
9115;SDS011;4593;53.652;10.168;2023-04-08T03:39:08;16.10;;;9.47;;
9115;SDS011;4593;53.652;10.168;2023-04-08T03:41:34;17.47;;;8.97;;
9115;SDS011;4593;53.652;10.168;2023-04-08T03:44:00;17.17;;;9.63;;
9115;SDS011;4593;53.652;10.168;2023-04-08T03:46:26;17.23;;;9.23;;
9115;SDS011;4593;53.652;10.168;2023-04-08T03:48:52;17.70;;;10.73;;
9115;SDS011;4593;53.652;10.168;2023-04-08T03:51:17;17.80;;;10.47;;
9115;SDS011;4593;53.652;10.168;2023-04-08T03:53:43;18.50;;;8.67;;
9115;SDS011;4593;53.652;10.168;2023-04-08T03:56:09;15.03;;;8.77;;
9115;SDS011;4593;53.652;10.168;2023-04-08T03:58:35;20.27;;;9.60;;
9115;SDS011;4593;53.652;10.168;2023-04-08T04:01:00;20.53;;;7.57;;
9115;SDS011;4593;53.652;10.168;2023-04-08T04:03:26;17.03;;;8.70;;
9115;SDS011;4593;53.652;10.168;2023-04-08T04:05:52;23.27;;;8.97;;
9115;SDS011;4593;53.652;10.168;2023-04-08T04:08:17;14.10;;;8.00;;
9115;SDS011;4593;53.652;10.168;2023-04-08T04:10:43;14.80;;;8.27;;
9115;SDS011;4593;53.652;10.168;2023-04-08T04:13:08;20.97;;;8.93;;
9115;SDS011;4593;53.652;10.168;2023-04-08T04:15:38;22.57;;;7.67;;
9115;SDS011;4593;53.652;10.168;2023-04-08T04:18:04;19.97;;;8.07;;
9115;SDS011;4593;53.652;10.168;2023-04-08T04:20:30;16.60;;;7.83;;
9115;SDS011;4593;53.652;10.168;2023-04-08T04:22:56;19.47;;;8.23;;
9115;SDS011;4593;53.652;10.168;2023-04-08T04:25:22;23.87;;;9.23;;
9115;SDS011;4593;53.652;10.168;2023-04-08T04:27:48;13.97;;;8.37;;
9115;SDS011;4593;53.652;10.168;2023-04-08T04:30:14;20.00;;;8.83;;
9115;SDS011;4593;53.652;10.168;2023-04-08T04:32:42;17.20;;;8.47;;
9115;SDS011;4593;53.652;10.168;2023-04-08T04:35:11;20.40;;;8.83;;
9115;SDS011;4593;53.652;10.168;2023-04-08T04:37:37;22.03;;;8.27;;
9115;SDS011;4593;53.652;10.168;2023-04-08T04:40:03;17.50;;;9.10;;
9115;SDS011;4593;53.652;10.168;2023-04-08T04:42:30;19.27;;;9.57;;
9115;SDS011;4593;53.652;10.168;2023-04-08T04:44:56;16.33;;;9.07;;
9115;SDS011;4593;53.652;10.168;2023-04-08T04:47:22;18.10;;;8.87;;
9115;SDS011;4593;53.652;10.168;2023-04-08T04:49:48;12.80;;;7.87;;
9115;SDS011;4593;53.652;10.168;2023-04-08T04:52:14;12.53;;;7.73;;
9115;SDS011;4593;53.652;10.168;2023-04-08T04:54:40;15.57;;;8.30;;
9115;SDS011;4593;53.652;10.168;2023-04-08T04:57:06;23.37;;;9.37;;
9115;SDS011;4593;53.652;10.168;2023-04-08T04:59:32;18.87;;;9.50;;
9115;SDS011;4593;53.652;10.168;2023-04-08T05:01:58;15.73;;;8.73;;
9115;SDS011;4593;53.652;10.168;2023-04-08T05:04:23;17.17;;;8.37;;
9115;SDS011;4593;53.652;10.168;2023-04-08T05:06:49;21.33;;;8.37;;
9115;SDS011;4593;53.652;10.168;2023-04-08T05:09:15;19.67;;;9.77;;
9115;SDS011;4593;53.652;10.168;2023-04-08T05:11:41;18.33;;;9.73;;
9115;SDS011;4593;53.652;10.168;2023-04-08T05:14:06;19.20;;;8.90;;
9115;SDS011;4593;53.652;10.168;2023-04-08T05:16:32;19.33;;;8.17;;
9115;SDS011;4593;53.652;10.168;2023-04-08T05:18:58;19.10;;;9.27;;
9115;SDS011;4593;53.652;10.168;2023-04-08T05:21:24;25.17;;;11.07;;
9115;SDS011;4593;53.652;10.168;2023-04-08T05:23:51;18.83;;;9.63;;
9115;SDS011;4593;53.652;10.168;2023-04-08T05:26:21;21.03;;;9.27;;
9115;SDS011;4593;53.652;10.168;2023-04-08T05:28:47;15.47;;;8.43;;
9115;SDS011;4593;53.652;10.168;2023-04-08T05:31:17;18.87;;;9.97;;
9115;SDS011;4593;53.652;10.168;2023-04-08T05:33:43;16.70;;;8.97;;
9115;SDS011;4593;53.652;10.168;2023-04-08T05:36:09;21.20;;;9.37;;
9115;SDS011;4593;53.652;10.168;2023-04-08T05:38:35;17.97;;;8.63;;
9115;SDS011;4593;53.652;10.168;2023-04-08T05:41:01;23.27;;;9.43;;
9115;SDS011;4593;53.652;10.168;2023-04-08T05:43:27;15.10;;;9.13;;
9115;SDS011;4593;53.652;10.168;2023-04-08T05:45:52;14.83;;;8.33;;
9115;SDS011;4593;53.652;10.168;2023-04-08T05:48:18;16.37;;;9.47;;
9115;SDS011;4593;53.652;10.168;2023-04-08T05:50:44;18.93;;;10.10;;
9115;SDS011;4593;53.652;10.168;2023-04-08T05:53:12;18.20;;;9.23;;
9115;SDS011;4593;53.652;10.168;2023-04-08T05:55:38;19.17;;;8.07;;
9115;SDS011;4593;53.652;10.168;2023-04-08T05:58:04;19.77;;;8.90;;
9115;SDS011;4593;53.652;10.168;2023-04-08T06:00:30;14.37;;;8.83;;
9115;SDS011;4593;53.652;10.168;2023-04-08T06:02:56;20.87;;;8.70;;
9115;SDS011;4593;53.652;10.168;2023-04-08T06:05:21;17.30;;;9.10;;
9115;SDS011;4593;53.652;10.168;2023-04-08T06:07:47;16.20;;;8.63;;
9115;SDS011;4593;53.652;10.168;2023-04-08T06:10:13;19.43;;;9.00;;
9115;SDS011;4593;53.652;10.168;2023-04-08T06:12:38;19.97;;;8.47;;
9115;SDS011;4593;53.652;10.168;2023-04-08T06:15:05;21.30;;;10.17;;
9115;SDS011;4593;53.652;10.168;2023-04-08T06:17:31;21.30;;;8.93;;
9115;SDS011;4593;53.652;10.168;2023-04-08T06:20:00;18.70;;;8.97;;
9115;SDS011;4593;53.652;10.168;2023-04-08T06:22:26;18.53;;;8.87;;
9115;SDS011;4593;53.652;10.168;2023-04-08T06:24:51;21.87;;;9.60;;
9115;SDS011;4593;53.652;10.168;2023-04-08T06:27:17;19.37;;;10.87;;
9115;SDS011;4593;53.652;10.168;2023-04-08T06:29:42;21.10;;;9.93;;
9115;SDS011;4593;53.652;10.168;2023-04-08T06:32:08;18.03;;;8.60;;
9115;SDS011;4593;53.652;10.168;2023-04-08T06:34:34;20.47;;;10.40;;
9115;SDS011;4593;53.652;10.168;2023-04-08T06:37:00;14.43;;;8.20;;
9115;SDS011;4593;53.652;10.168;2023-04-08T06:39:25;15.40;;;8.53;;
9115;SDS011;4593;53.652;10.168;2023-04-08T06:41:51;21.93;;;10.23;;
9115;SDS011;4593;53.652;10.168;2023-04-08T06:44:18;14.03;;;7.80;;
9115;SDS011;4593;53.652;10.168;2023-04-08T06:46:44;16.87;;;8.73;;
9115;SDS011;4593;53.652;10.168;2023-04-08T06:49:11;18.97;;;8.77;;
9115;SDS011;4593;53.652;10.168;2023-04-08T06:51:37;18.23;;;8.00;;
9115;SDS011;4593;53.652;10.168;2023-04-08T06:54:02;17.30;;;8.93;;
9115;SDS011;4593;53.652;10.168;2023-04-08T06:56:28;17.70;;;9.57;;
9115;SDS011;4593;53.652;10.168;2023-04-08T06:58:54;15.43;;;8.80;;
9115;SDS011;4593;53.652;10.168;2023-04-08T07:01:19;17.80;;;8.63;;
9115;SDS011;4593;53.652;10.168;2023-04-08T07:03:45;16.93;;;9.27;;
9115;SDS011;4593;53.652;10.168;2023-04-08T07:06:11;24.97;;;8.93;;
9115;SDS011;4593;53.652;10.168;2023-04-08T07:08:36;14.27;;;7.93;;
9115;SDS011;4593;53.652;10.168;2023-04-08T07:11:02;18.70;;;8.80;;
9115;SDS011;4593;53.652;10.168;2023-04-08T07:13:28;21.90;;;8.83;;
9115;SDS011;4593;53.652;10.168;2023-04-08T07:15:54;14.33;;;8.17;;
9115;SDS011;4593;53.652;10.168;2023-04-08T07:18:20;21.37;;;8.50;;
9115;SDS011;4593;53.652;10.168;2023-04-08T07:20:49;15.43;;;7.43;;
9115;SDS011;4593;53.652;10.168;2023-04-08T07:23:17;13.37;;;7.63;;
9115;SDS011;4593;53.652;10.168;2023-04-08T07:25:44;18.50;;;8.23;;
9115;SDS011;4593;53.652;10.168;2023-04-08T07:28:09;18.07;;;7.63;;
9115;SDS011;4593;53.652;10.168;2023-04-08T07:30:35;19.47;;;8.93;;
9115;SDS011;4593;53.652;10.168;2023-04-08T07:33:01;15.07;;;7.87;;
9115;SDS011;4593;53.652;10.168;2023-04-08T07:35:26;15.23;;;8.40;;
9115;SDS011;4593;53.652;10.168;2023-04-08T07:37:53;14.33;;;7.40;;
9115;SDS011;4593;53.652;10.168;2023-04-08T07:40:19;17.37;;;8.17;;
9115;SDS011;4593;53.652;10.168;2023-04-08T07:42:45;14.67;;;7.40;;
9115;SDS011;4593;53.652;10.168;2023-04-08T07:45:11;13.33;;;6.97;;
9115;SDS011;4593;53.652;10.168;2023-04-08T07:47:36;14.80;;;7.97;;
9115;SDS011;4593;53.652;10.168;2023-04-08T07:50:02;12.70;;;6.93;;
9115;SDS011;4593;53.652;10.168;2023-04-08T07:52:31;14.27;;;7.43;;
9115;SDS011;4593;53.652;10.168;2023-04-08T07:54:57;14.37;;;7.73;;
9115;SDS011;4593;53.652;10.168;2023-04-08T07:57:23;14.57;;;8.13;;
9115;SDS011;4593;53.652;10.168;2023-04-08T07:59:50;16.37;;;7.77;;
9115;SDS011;4593;53.652;10.168;2023-04-08T08:02:16;14.93;;;8.43;;
9115;SDS011;4593;53.652;10.168;2023-04-08T08:04:41;21.57;;;8.87;;
9115;SDS011;4593;53.652;10.168;2023-04-08T08:07:07;18.97;;;8.33;;
9115;SDS011;4593;53.652;10.168;2023-04-08T08:09:32;16.67;;;7.47;;
9115;SDS011;4593;53.652;10.168;2023-04-08T08:11:58;17.10;;;8.80;;
9115;SDS011;4593;53.652;10.168;2023-04-08T08:14:24;18.90;;;9.60;;
9115;SDS011;4593;53.652;10.168;2023-04-08T08:16:50;14.97;;;7.93;;
9115;SDS011;4593;53.652;10.168;2023-04-08T08:19:18;20.50;;;8.93;;
9115;SDS011;4593;53.652;10.168;2023-04-08T08:21:47;12.50;;;7.73;;
9115;SDS011;4593;53.652;10.168;2023-04-08T08:24:12;17.30;;;7.23;;
9115;SDS011;4593;53.652;10.168;2023-04-08T08:26:38;13.13;;;7.80;;
9115;SDS011;4593;53.652;10.168;2023-04-08T08:29:04;15.63;;;8.77;;
9115;SDS011;4593;53.652;10.168;2023-04-08T08:31:32;13.90;;;8.43;;
9115;SDS011;4593;53.652;10.168;2023-04-08T08:33:58;12.87;;;8.00;;
9115;SDS011;4593;53.652;10.168;2023-04-08T08:36:24;20.90;;;8.73;;
9115;SDS011;4593;53.652;10.168;2023-04-08T08:38:51;15.90;;;7.93;;
9115;SDS011;4593;53.652;10.168;2023-04-08T08:41:18;14.60;;;8.43;;
9115;SDS011;4593;53.652;10.168;2023-04-08T08:43:47;14.87;;;8.53;;
9115;SDS011;4593;53.652;10.168;2023-04-08T08:46:14;15.13;;;7.80;;
9115;SDS011;4593;53.652;10.168;2023-04-08T08:48:41;18.77;;;8.30;;
9115;SDS011;4593;53.652;10.168;2023-04-08T08:51:08;15.03;;;8.33;;
9115;SDS011;4593;53.652;10.168;2023-04-08T08:53:34;15.60;;;8.20;;
9115;SDS011;4593;53.652;10.168;2023-04-08T08:56:01;16.13;;;7.93;;
9115;SDS011;4593;53.652;10.168;2023-04-08T08:58:27;12.20;;;7.53;;
9115;SDS011;4593;53.652;10.168;2023-04-08T09:00:53;13.53;;;6.93;;
9115;SDS011;4593;53.652;10.168;2023-04-08T09:03:22;13.97;;;8.07;;
9115;SDS011;4593;53.652;10.168;2023-04-08T09:10:57;12.60;;;7.00;;
9115;SDS011;4593;53.652;10.168;2023-04-08T09:13:44;13.53;;;7.63;;
9115;SDS011;4593;53.652;10.168;2023-04-08T09:16:13;13.63;;;7.90;;
9115;SDS011;4593;53.652;10.168;2023-04-08T09:18:42;13.70;;;7.30;;
9115;SDS011;4593;53.652;10.168;2023-04-08T09:21:10;14.60;;;8.10;;
9115;SDS011;4593;53.652;10.168;2023-04-08T09:23:41;10.63;;;7.37;;
9115;SDS011;4593;53.652;10.168;2023-04-08T09:26:10;21.27;;;8.33;;
9115;SDS011;4593;53.652;10.168;2023-04-08T09:28:37;12.77;;;7.20;;
9115;SDS011;4593;53.652;10.168;2023-04-08T09:31:17;14.03;;;8.33;;
9115;SDS011;4593;53.652;10.168;2023-04-08T09:33:47;11.47;;;7.33;;
9115;SDS011;4593;53.652;10.168;2023-04-08T09:36:15;14.47;;;8.00;;
9115;SDS011;4593;53.652;10.168;2023-04-08T09:38:41;14.03;;;7.90;;
9115;SDS011;4593;53.652;10.168;2023-04-08T09:41:08;17.93;;;9.30;;
9115;SDS011;4593;53.652;10.168;2023-04-08T09:43:42;13.63;;;6.77;;
9115;SDS011;4593;53.652;10.168;2023-04-08T09:46:16;14.13;;;7.10;;
9115;SDS011;4593;53.652;10.168;2023-04-08T09:48:45;12.30;;;6.80;;
9115;SDS011;4593;53.652;10.168;2023-04-08T09:51:17;11.80;;;6.97;;
9115;SDS011;4593;53.652;10.168;2023-04-08T09:53:46;10.57;;;7.07;;
9115;SDS011;4593;53.652;10.168;2023-04-08T09:56:12;10.97;;;6.77;;
9115;SDS011;4593;53.652;10.168;2023-04-08T09:59:02;12.23;;;6.80;;
9115;SDS011;4593;53.652;10.168;2023-04-08T10:01:37;15.20;;;7.30;;
9115;SDS011;4593;53.652;10.168;2023-04-08T10:04:07;15.17;;;7.73;;
9115;SDS011;4593;53.652;10.168;2023-04-08T10:06:37;12.37;;;7.63;;
9115;SDS011;4593;53.652;10.168;2023-04-08T10:09:05;17.53;;;8.07;;
9115;SDS011;4593;53.652;10.168;2023-04-08T10:11:31;16.63;;;7.73;;
9115;SDS011;4593;53.652;10.168;2023-04-08T10:13:58;13.30;;;7.43;;
9115;SDS011;4593;53.652;10.168;2023-04-08T10:16:25;12.57;;;6.53;;
9115;SDS011;4593;53.652;10.168;2023-04-08T10:18:51;13.67;;;7.93;;
9115;SDS011;4593;53.652;10.168;2023-04-08T10:21:37;13.97;;;7.87;;
9115;SDS011;4593;53.652;10.168;2023-04-08T10:24:06;17.13;;;9.07;;
9115;SDS011;4593;53.652;10.168;2023-04-08T10:32:00;14.67;;;9.00;;
9115;SDS011;4593;53.652;10.168;2023-04-08T10:34:26;17.07;;;8.80;;
9115;SDS011;4593;53.652;10.168;2023-04-08T10:36:53;15.53;;;8.87;;
9115;SDS011;4593;53.652;10.168;2023-04-08T10:39:19;18.27;;;8.63;;
9115;SDS011;4593;53.652;10.168;2023-04-08T10:41:46;21.30;;;8.97;;
9115;SDS011;4593;53.652;10.168;2023-04-08T10:44:18;18.37;;;10.00;;
9115;SDS011;4593;53.652;10.168;2023-04-08T10:46:45;17.60;;;9.57;;
9115;SDS011;4593;53.652;10.168;2023-04-08T10:49:13;19.30;;;11.17;;
9115;SDS011;4593;53.652;10.168;2023-04-08T10:51:42;20.43;;;9.83;;
9115;SDS011;4593;53.652;10.168;2023-04-08T10:54:09;20.50;;;10.00;;
9115;SDS011;4593;53.652;10.168;2023-04-08T10:56:43;23.53;;;10.13;;
9115;SDS011;4593;53.652;10.168;2023-04-08T10:59:10;14.47;;;9.83;;
9115;SDS011;4593;53.652;10.168;2023-04-08T11:01:38;22.30;;;9.50;;
9115;SDS011;4593;53.652;10.168;2023-04-08T11:04:11;20.67;;;9.57;;
9115;SDS011;4593;53.652;10.168;2023-04-08T11:06:41;16.90;;;9.27;;
9115;SDS011;4593;53.652;10.168;2023-04-08T11:09:07;18.03;;;9.73;;
9115;SDS011;4593;53.652;10.168;2023-04-08T11:11:33;15.93;;;8.07;;
9115;SDS011;4593;53.652;10.168;2023-04-08T11:14:00;14.87;;;8.87;;
9115;SDS011;4593;53.652;10.168;2023-04-08T11:16:26;19.53;;;9.80;;
9115;SDS011;4593;53.652;10.168;2023-04-08T11:18:53;13.90;;;8.67;;
9115;SDS011;4593;53.652;10.168;2023-04-08T11:21:19;20.40;;;10.63;;
9115;SDS011;4593;53.652;10.168;2023-04-08T11:23:50;15.03;;;8.80;;
9115;SDS011;4593;53.652;10.168;2023-04-08T11:26:17;21.53;;;10.83;;
9115;SDS011;4593;53.652;10.168;2023-04-08T11:28:43;19.67;;;10.30;;
9115;SDS011;4593;53.652;10.168;2023-04-08T11:31:10;17.50;;;9.60;;
9115;SDS011;4593;53.652;10.168;2023-04-08T11:33:37;19.83;;;10.37;;
9115;SDS011;4593;53.652;10.168;2023-04-08T11:36:08;19.20;;;8.73;;
9115;SDS011;4593;53.652;10.168;2023-04-08T11:38:37;18.77;;;9.90;;
9115;SDS011;4593;53.652;10.168;2023-04-08T11:41:04;16.83;;;9.03;;
9115;SDS011;4593;53.652;10.168;2023-04-08T11:43:30;19.60;;;9.37;;
9115;SDS011;4593;53.652;10.168;2023-04-08T11:45:56;17.33;;;9.17;;
9115;SDS011;4593;53.652;10.168;2023-04-08T11:48:21;15.10;;;8.33;;
9115;SDS011;4593;53.652;10.168;2023-04-08T11:50:49;16.30;;;9.00;;
9115;SDS011;4593;53.652;10.168;2023-04-08T11:53:27;13.60;;;8.87;;
9115;SDS011;4593;53.652;10.168;2023-04-08T11:55:53;13.70;;;8.27;;
9115;SDS011;4593;53.652;10.168;2023-04-08T11:58:20;12.03;;;8.03;;
9115;SDS011;4593;53.652;10.168;2023-04-08T12:00:45;17.00;;;9.60;;
9115;SDS011;4593;53.652;10.168;2023-04-08T12:03:11;17.70;;;9.47;;
9115;SDS011;4593;53.652;10.168;2023-04-08T12:05:37;14.70;;;9.37;;
9115;SDS011;4593;53.652;10.168;2023-04-08T12:08:03;15.70;;;9.17;;
9115;SDS011;4593;53.652;10.168;2023-04-08T12:10:29;15.13;;;8.73;;
9115;SDS011;4593;53.652;10.168;2023-04-08T12:12:55;21.60;;;8.80;;
9115;SDS011;4593;53.652;10.168;2023-04-08T12:15:20;17.47;;;9.33;;
9115;SDS011;4593;53.652;10.168;2023-04-08T12:17:46;17.93;;;9.67;;
9115;SDS011;4593;53.652;10.168;2023-04-08T12:20:12;15.57;;;9.03;;
9115;SDS011;4593;53.652;10.168;2023-04-08T12:22:40;13.80;;;7.97;;
9115;SDS011;4593;53.652;10.168;2023-04-08T12:25:05;12.33;;;7.93;;
9115;SDS011;4593;53.652;10.168;2023-04-08T12:27:31;20.83;;;8.23;;
9115;SDS011;4593;53.652;10.168;2023-04-08T12:30:01;18.30;;;8.93;;
9115;SDS011;4593;53.652;10.168;2023-04-08T12:32:27;11.00;;;7.53;;
9115;SDS011;4593;53.652;10.168;2023-04-08T12:34:53;16.50;;;9.10;;
9115;SDS011;4593;53.652;10.168;2023-04-08T12:37:18;12.97;;;8.00;;
9115;SDS011;4593;53.652;10.168;2023-04-08T12:39:47;15.53;;;8.97;;
9115;SDS011;4593;53.652;10.168;2023-04-08T12:42:13;16.37;;;7.70;;
9115;SDS011;4593;53.652;10.168;2023-04-08T12:44:39;14.73;;;8.50;;
9115;SDS011;4593;53.652;10.168;2023-04-08T12:47:05;15.27;;;8.67;;
9115;SDS011;4593;53.652;10.168;2023-04-08T12:49:31;15.00;;;9.57;;
9115;SDS011;4593;53.652;10.168;2023-04-08T12:51:56;12.40;;;8.53;;
9115;SDS011;4593;53.652;10.168;2023-04-08T12:54:22;13.63;;;8.47;;
9115;SDS011;4593;53.652;10.168;2023-04-08T12:56:48;17.60;;;8.17;;
9115;SDS011;4593;53.652;10.168;2023-04-08T12:59:14;13.63;;;8.60;;
9115;SDS011;4593;53.652;10.168;2023-04-08T13:01:40;14.17;;;8.57;;
9115;SDS011;4593;53.652;10.168;2023-04-08T13:04:06;16.33;;;9.67;;
9115;SDS011;4593;53.652;10.168;2023-04-08T13:06:31;15.60;;;8.67;;
9115;SDS011;4593;53.652;10.168;2023-04-08T13:08:57;14.47;;;9.63;;
9115;SDS011;4593;53.652;10.168;2023-04-08T13:11:23;12.23;;;8.67;;
9115;SDS011;4593;53.652;10.168;2023-04-08T13:13:49;17.03;;;8.30;;
9115;SDS011;4593;53.652;10.168;2023-04-08T13:16:14;17.07;;;9.17;;
9115;SDS011;4593;53.652;10.168;2023-04-08T13:18:40;17.67;;;10.03;;
9115;SDS011;4593;53.652;10.168;2023-04-08T13:21:06;18.10;;;9.17;;
9115;SDS011;4593;53.652;10.168;2023-04-08T13:23:33;15.53;;;9.33;;
9115;SDS011;4593;53.652;10.168;2023-04-08T13:25:59;22.93;;;10.00;;
9115;SDS011;4593;53.652;10.168;2023-04-08T13:28:25;17.77;;;11.00;;
9115;SDS011;4593;53.652;10.168;2023-04-08T13:30:50;18.53;;;9.73;;
9115;SDS011;4593;53.652;10.168;2023-04-08T13:33:17;20.47;;;12.60;;
9115;SDS011;4593;53.652;10.168;2023-04-08T13:35:43;16.20;;;10.13;;
9115;SDS011;4593;53.652;10.168;2023-04-08T13:38:09;16.57;;;8.97;;
9115;SDS011;4593;53.652;10.168;2023-04-08T13:40:35;19.27;;;11.13;;
9115;SDS011;4593;53.652;10.168;2023-04-08T13:43:01;14.53;;;9.27;;
9115;SDS011;4593;53.652;10.168;2023-04-08T13:45:27;17.47;;;9.53;;
9115;SDS011;4593;53.652;10.168;2023-04-08T13:47:53;20.83;;;11.07;;
9115;SDS011;4593;53.652;10.168;2023-04-08T13:50:18;18.23;;;10.63;;
9115;SDS011;4593;53.652;10.168;2023-04-08T13:52:45;22.77;;;8.60;;
9115;SDS011;4593;53.652;10.168;2023-04-08T13:55:10;18.33;;;9.40;;
9115;SDS011;4593;53.652;10.168;2023-04-08T13:57:36;16.10;;;9.50;;
9115;SDS011;4593;53.652;10.168;2023-04-08T14:00:02;17.43;;;9.30;;
9115;SDS011;4593;53.652;10.168;2023-04-08T14:02:28;21.27;;;10.53;;
9115;SDS011;4593;53.652;10.168;2023-04-08T14:04:55;19.10;;;10.97;;
9115;SDS011;4593;53.652;10.168;2023-04-08T14:07:20;17.90;;;11.33;;
9115;SDS011;4593;53.652;10.168;2023-04-08T14:09:46;18.03;;;11.77;;
9115;SDS011;4593;53.652;10.168;2023-04-08T14:12:11;17.57;;;9.93;;
9115;SDS011;4593;53.652;10.168;2023-04-08T14:14:37;16.57;;;9.07;;
9115;SDS011;4593;53.652;10.168;2023-04-08T14:17:03;16.47;;;9.50;;
9115;SDS011;4593;53.652;10.168;2023-04-08T14:19:28;17.40;;;9.80;;
9115;SDS011;4593;53.652;10.168;2023-04-08T14:21:54;16.53;;;8.97;;
9115;SDS011;4593;53.652;10.168;2023-04-08T14:24:20;19.70;;;10.07;;
9115;SDS011;4593;53.652;10.168;2023-04-08T14:26:46;20.77;;;11.10;;
9115;SDS011;4593;53.652;10.168;2023-04-08T14:29:11;19.67;;;9.83;;
9115;SDS011;4593;53.652;10.168;2023-04-08T14:31:37;17.20;;;10.97;;
9115;SDS011;4593;53.652;10.168;2023-04-08T14:34:03;20.27;;;11.00;;
9115;SDS011;4593;53.652;10.168;2023-04-08T14:36:29;23.23;;;12.80;;
9115;SDS011;4593;53.652;10.168;2023-04-08T14:38:55;24.67;;;12.37;;
9115;SDS011;4593;53.652;10.168;2023-04-08T14:41:21;20.70;;;12.07;;
9115;SDS011;4593;53.652;10.168;2023-04-08T14:43:47;27.80;;;12.83;;
9115;SDS011;4593;53.652;10.168;2023-04-08T14:46:13;28.50;;;14.30;;
9115;SDS011;4593;53.652;10.168;2023-04-08T14:48:39;16.17;;;10.67;;
9115;SDS011;4593;53.652;10.168;2023-04-08T14:51:05;22.17;;;10.77;;
9115;SDS011;4593;53.652;10.168;2023-04-08T14:53:31;23.07;;;10.40;;
9115;SDS011;4593;53.652;10.168;2023-04-08T14:55:57;17.77;;;10.17;;
9115;SDS011;4593;53.652;10.168;2023-04-08T14:58:23;21.57;;;10.67;;